Time;durP1;ratioP1;P1;durP2;ratioP2;P2;SDS_P1;SDS_P2;PMS_P1;PMS_P2;Temp;Humidity;BMP_temperature;BMP_pressure;BME280_temperature;BME280_humidity;BME280_pressure;Samples;Min_cycle;Max_cycle;Signal;HPM_P1;HPM_P2
2022/06/14 00:01:21;;;;;;;4.70;2.38;;;11.60;99.90;;;;;;5012417;28;20477;-55
2022/06/14 00:03:47;;;;;;;2.45;1.15;;;11.60;99.90;;;;;;5010098;28;20041;-56
2022/06/14 00:06:22;;;;;;;2.17;1.20;;;11.50;99.90;;;;;;5009806;28;20061;-57
2022/06/14 00:08:48;;;;;;;3.08;1.30;;;11.50;99.90;;;;;;5010034;28;20498;-55
2022/06/14 00:11:24;;;;;;;2.20;1.13;;;11.50;99.90;;;;;;5012159;28;20454;-57
2022/06/14 00:13:51;;;;;;;3.50;1.45;;;11.40;99.90;;;;;;5007514;28;20030;-56
2022/06/14 00:16:18;;;;;;;3.97;1.30;;;11.20;99.90;;;;;;5010261;28;20025;-55
2022/06/14 00:18:44;;;;;;;2.75;1.10;;;11.10;99.90;;;;;;5010769;28;20061;-56
2022/06/14 00:21:10;;;;;;;2.00;1.00;;;11.00;99.90;;;;;;5010163;28;20127;-55
2022/06/14 00:23:36;;;;;;;4.32;1.30;;;11.10;99.90;;;;;;5007192;28;20068;-56
2022/06/14 00:26:03;;;;;;;1.95;1.00;;;11.20;99.90;;;;;;5010200;28;20032;-55
2022/06/14 00:28:32;;;;;;;1.35;1.02;;;11.20;99.90;;;;;;5010401;28;20030;-55
2022/06/14 00:31:20;;;;;;;3.22;1.33;;;11.30;99.90;;;;;;5011340;28;20036;-56
2022/06/14 00:33:46;;;;;;;2.53;1.00;;;11.20;99.90;;;;;;5001235;28;20026;-56
2022/06/14 00:36:30;;;;;;;1.42;0.90;;;11.20;99.90;;;;;;5011818;28;20022;-57
2022/06/14 00:39:01;;;;;;;2.80;1.00;;;11.10;99.90;;;;;;5003944;28;20137;-56
2022/06/14 00:41:38;;;;;;;2.97;1.08;;;11.00;99.90;;;;;;5011384;28;20057;-56
2022/06/14 00:44:07;;;;;;;3.28;0.95;;;11.00;99.90;;;;;;5011658;28;20793;-55
2022/06/14 00:46:58;;;;;;;2.13;1.20;;;11.00;99.90;;;;;;5008933;28;20104;-56
2022/06/14 00:49:41;;;;;;;3.15;1.42;;;10.90;99.90;;;;;;5011924;28;20552;-56
2022/06/14 00:52:15;;;;;;;2.65;1.40;;;10.90;99.90;;;;;;5003301;28;20898;-56
2022/06/14 00:54:44;;;;;;;5.63;1.27;;;10.90;99.90;;;;;;5008880;28;20037;-57
2022/06/14 00:57:27;;;;;;;1.67;1.17;;;10.90;99.90;;;;;;5005734;28;20026;-54
2022/06/14 00:59:59;;;;;;;4.68;1.00;;;10.80;99.90;;;;;;5004688;28;20036;-55
2022/06/14 01:02:31;;;;;;;2.30;1.10;;;10.70;99.90;;;;;;5011252;28;20033;-55
2022/06/14 01:05:03;;;;;;;2.63;1.05;;;10.60;99.90;;;;;;5005061;28;20397;-55
2022/06/14 01:07:38;;;;;;;3.97;1.08;;;10.60;99.90;;;;;;5006441;28;20014;-57
2022/06/14 01:10:08;;;;;;;2.75;0.95;;;10.50;99.90;;;;;;5011643;28;20030;-56
2022/06/14 01:12:40;;;;;;;5.15;1.38;;;10.50;99.90;;;;;;5009099;28;20105;-56
2022/06/14 01:15:18;;;;;;;3.53;1.08;;;10.40;99.90;;;;;;5011023;28;20029;-54
2022/06/14 01:17:48;;;;;;;2.58;1.20;;;10.40;99.90;;;;;;5007263;28;20466;-55
2022/06/14 01:20:17;;;;;;;2.03;0.80;;;10.40;99.90;;;;;;5010521;28;20034;-56
2022/06/14 01:22:44;;;;;;;1.92;1.10;;;10.50;99.90;;;;;;5008144;28;20486;-56
2022/06/14 01:25:10;;;;;;;4.40;0.93;;;10.50;99.90;;;;;;5010705;28;20045;-56
2022/06/14 01:27:39;;;;;;;2.22;0.70;;;10.50;99.90;;;;;;5008945;28;20477;-55
2022/06/14 01:30:28;;;;;;;2.33;0.85;;;10.40;99.90;;;;;;5011177;28;20112;-55
2022/06/14 01:33:11;;;;;;;3.38;1.20;;;10.20;99.90;;;;;;5011017;28;20037;-54
2022/06/14 01:35:40;;;;;;;3.47;1.33;;;10.10;99.90;;;;;;5008791;28;20421;-56
2022/06/14 01:38:15;;;;;;;1.58;1.13;;;10.10;99.90;;;;;;5010454;28;20037;-55
2022/06/14 01:40:43;;;;;;;2.67;1.13;;;10.10;99.90;;;;;;5000614;28;20156;-58
2022/06/14 01:43:39;;;;;;;1.95;1.45;;;10.10;99.90;;;;;;5010638;28;20022;-56
2022/06/14 01:46:24;;;;;;;3.63;1.38;;;9.90;99.90;;;;;;5003297;28;20042;-55
2022/06/14 01:52:17;;;;;;;3.17;1.30;;;9.90;99.90;;;;;;5006696;28;20496;-56
2022/06/14 01:55:05;;;;;;;4.40;1.23;;;9.90;99.90;;;;;;5007606;28;20034;-56
2022/06/14 01:57:35;;;;;;;1.75;1.10;;;9.90;99.90;;;;;;5007819;28;20099;-56
2022/06/14 02:00:19;;;;;;;4.65;1.23;;;9.80;99.90;;;;;;5008171;28;20037;-56
2022/06/14 02:05:57;;;;;;;4.75;1.40;;;9.80;99.90;;;;;;5007758;28;20513;-55
2022/06/14 02:08:26;;;;;;;3.40;1.37;;;9.70;99.90;;;;;;5007983;28;20045;-56
2022/06/14 02:11:01;;;;;;;1.48;1.17;;;9.60;99.90;;;;;;4999215;28;20440;-57
2022/06/14 02:13:30;;;;;;;1.40;0.90;;;9.60;99.90;;;;;;5006174;28;20053;-55
2022/06/14 02:16:16;;;;;;;1.95;0.95;;;9.60;99.90;;;;;;5001509;28;20076;-55
2022/06/14 02:18:47;;;;;;;3.20;1.60;;;9.60;99.90;;;;;;5003573;28;20034;-55
2022/06/14 02:21:44;;;;;;;2.25;1.42;;;9.60;99.90;;;;;;5009461;28;20071;-56
2022/06/14 02:24:22;;;;;;;1.90;1.20;;;9.50;99.90;;;;;;4991832;28;20456;-56
2022/06/14 02:26:52;;;;;;;1.45;0.98;;;9.50;99.90;;;;;;4999586;28;20132;-56
2022/06/14 02:29:34;;;;;;;4.80;1.30;;;9.50;99.90;;;;;;5010050;28;20026;-56
2022/06/14 02:32:13;;;;;;;2.85;1.63;;;9.50;99.90;;;;;;5007840;28;20026;-56
2022/06/14 02:34:49;;;;;;;2.03;1.05;;;9.40;99.90;;;;;;5008033;28;20038;-56
2022/06/14 02:37:30;;;;;;;2.45;1.27;;;9.40;99.90;;;;;;5009955;28;20081;-55
2022/06/14 02:40:31;;;;;;;3.70;1.20;;;9.40;99.90;;;;;;5010078;28;20471;-56
2022/06/14 02:43:05;;;;;;;1.35;1.00;;;9.40;99.90;;;;;;4993787;28;20034;-57
2022/06/14 02:45:38;;;;;;;2.38;1.73;;;9.40;99.90;;;;;;5002244;28;20033;-57
2022/06/14 02:48:30;;;;;;;4.80;1.13;;;9.40;99.90;;;;;;5008858;28;20078;-56
2022/06/14 02:51:14;;;;;;;5.05;1.05;;;9.30;99.90;;;;;;5002315;28;20045;-56
2022/06/14 02:54:35;;;;;;;3.50;1.00;;;9.30;99.90;;;;;;4998164;28;20501;-56
2022/06/14 02:57:15;;;;;;;3.33;1.10;;;9.30;99.90;;;;;;4934034;29;20126;-55
2022/06/14 02:59:59;;;;;;;4.78;1.40;;;9.30;99.90;;;;;;4945810;28;20519;-56
2022/06/14 03:02:31;;;;;;;1.75;1.30;;;9.20;99.90;;;;;;4938859;29;20395;-57
2022/06/14 03:05:07;;;;;;;4.53;0.95;;;9.20;99.90;;;;;;4944930;28;20051;-57
2022/06/14 03:07:40;;;;;;;2.08;1.00;;;9.20;99.90;;;;;;4938428;28;20059;-58
2022/06/14 03:10:07;;;;;;;2.67;1.58;;;9.20;99.90;;;;;;4949213;28;20098;-56
2022/06/14 03:13:05;;;;;;;3.03;1.08;;;9.10;99.90;;;;;;4946448;28;20039;-56
2022/06/14 03:15:47;;;;;;;2.33;0.95;;;9.10;99.90;;;;;;4930309;29;20251;-57
2022/06/14 03:18:21;;;;;;;;;;;9.10;99.90;;;;;;4946444;28;20491;-56
2022/06/14 03:21:24;;;;;;;3.15;1.10;;;9.00;99.90;;;;;;4950917;29;19997;-56
2022/06/14 03:23:53;;;;;;;2.60;0.90;;;9.00;99.90;;;;;;4951100;29;20058;-55
2022/06/14 03:26:35;;;;;;;1.90;1.05;;;9.00;99.90;;;;;;4952244;28;20074;-56
2022/06/14 03:29:04;;;;;;;;;;;8.90;99.90;;;;;;4953236;29;20440;-56
2022/06/14 03:32:02;;;;;;;4.63;1.40;;;8.90;99.90;;;;;;4989940;28;19910;-56
2022/06/14 03:34:32;;;;;;;4.90;1.10;;;8.90;99.90;;;;;;5001769;28;20097;-58
2022/06/14 03:36:58;;;;;;;1.90;0.82;;;8.90;99.90;;;;;;5012102;28;20045;-57
2022/06/14 03:39:31;;;;;;;1.38;0.73;;;8.90;99.90;;;;;;5012908;28;20446;-56
2022/06/14 03:41:58;;;;;;;2.55;1.55;;;8.80;99.90;;;;;;5020445;23;20014;-58
2022/06/14 03:44:27;;;;;;;3.05;1.15;;;8.90;99.90;;;;;;4993005;28;20129;-58
2022/06/14 03:47:14;;;;;;;4.53;1.30;;;8.90;99.90;;;;;;4989692;28;20437;-58
2022/06/14 03:50:08;;;;;;;2.95;1.30;;;8.80;99.90;;;;;;4981899;28;20041;-57
2022/06/14 03:52:57;;;;;;;1.73;1.10;;;8.90;99.90;;;;;;4989970;28;20041;-57
2022/06/14 03:55:47;;;;;;;6.80;1.23;;;8.90;99.90;;;;;;4990666;28;20073;-58
2022/06/14 03:58:16;;;;;;;1.40;1.00;;;9.00;99.90;;;;;;4979595;28;20034;-58
2022/06/14 04:01:12;;;;;;;3.50;1.48;;;8.90;99.90;;;;;;4990678;28;20038;-58
2022/06/14 04:04:17;;;;;;;2.17;1.20;;;8.90;99.90;;;;;;4981115;28;20030;-58
2022/06/14 04:07:14;;;;;;;2.47;1.40;;;8.90;99.90;;;;;;4956405;28;20061;-58
2022/06/14 04:09:52;;;;;;;2.78;1.83;;;8.90;99.90;;;;;;4991216;28;20052;-58
2022/06/14 04:12:53;;;;;;;2.00;1.63;;;8.80;99.90;;;;;;4980724;28;20063;-58
2022/06/14 04:15:33;;;;;;;2.33;1.40;;;8.80;99.90;;;;;;4989201;28;20081;-58
2022/06/14 04:18:35;;;;;;;2.53;2.03;;;8.70;99.90;;;;;;4991247;28;20027;-57
2022/06/14 04:21:12;;;;;;;4.88;2.10;;;8.60;99.90;;;;;;4985189;28;20030;-60
2022/06/14 04:23:52;;;;;;;4.05;2.25;;;8.40;99.90;;;;;;4979016;28;20492;-57
2022/06/14 04:26:29;;;;;;;3.00;2.25;;;8.30;99.90;;;;;;4988010;28;20113;-57
2022/06/14 04:29:06;;;;;;;3.42;2.22;;;8.20;99.90;;;;;;4990088;28;20121;-59
2022/06/14 04:31:42;;;;;;;3.45;2.38;;;8.10;99.90;;;;;;4982511;28;20057;-58
2022/06/14 04:34:29;;;;;;;3.10;2.60;;;8.10;99.90;;;;;;4992517;28;20036;-59
2022/06/14 04:37:05;;;;;;;2.85;2.15;;;8.20;99.90;;;;;;4984867;28;20041;-58
2022/06/14 04:39:39;;;;;;;6.20;2.35;;;8.20;99.90;;;;;;4987683;28;20038;-60
2022/06/14 04:42:14;;;;;;;6.93;2.33;;;8.20;99.90;;;;;;4985860;28;20823;-58
2022/06/14 04:44:42;;;;;;;3.72;1.73;;;8.20;99.90;;;;;;4990006;28;20053;-56
2022/06/14 04:47:43;;;;;;;6.35;2.28;;;8.20;99.90;;;;;;4991370;28;20089;-57
2022/06/14 04:50:19;;;;;;;3.15;2.00;;;8.40;99.90;;;;;;4976627;28;21317;-60
2022/06/14 04:52:56;;;;;;;3.10;1.92;;;8.50;99.90;;;;;;4990366;28;20109;-59
2022/06/14 04:56:02;;;;;;;6.68;1.98;;;8.50;99.90;;;;;;4991997;28;20041;-57
2022/06/14 04:58:49;;;;;;;3.05;1.65;;;8.60;99.90;;;;;;4966982;28;20125;-57
2022/06/14 05:01:27;;;;;;;2.30;1.90;;;8.60;99.90;;;;;;4976766;28;20088;-59
2022/06/14 05:04:03;;;;;;;4.05;1.90;;;8.60;99.90;;;;;;4987161;28;20030;-58
2022/06/14 05:06:41;;;;;;;3.47;2.17;;;8.60;99.90;;;;;;4989611;28;20052;-58
2022/06/14 05:09:13;;;;;;;6.47;2.42;;;8.60;99.90;;;;;;4986997;28;20027;-57
2022/06/14 05:12:00;;;;;;;4.90;2.40;;;8.60;99.90;;;;;;4984331;28;20033;-58
2022/06/14 05:14:30;;;;;;;3.47;1.88;;;8.70;99.90;;;;;;4991480;28;20034;-58
2022/06/14 05:17:22;;;;;;;4.68;2.35;;;8.80;99.90;;;;;;4991877;28;20026;-58
2022/06/14 05:20:27;;;;;;;3.28;2.60;;;8.80;99.90;;;;;;4963281;28;20085;-58
2022/06/14 05:23:04;;;;;;;4.90;2.17;;;8.80;99.90;;;;;;4981243;28;20026;-58
2022/06/14 05:26:02;;;;;;;4.15;2.70;;;8.90;99.90;;;;;;4988728;28;20066;-57
2022/06/14 05:28:37;;;;;;;4.70;2.65;;;8.90;99.90;;;;;;4975664;28;20058;-59
2022/06/14 05:31:16;;;;;;;4.70;2.65;;;9.00;99.90;;;;;;4986274;28;20390;-57
2022/06/14 05:33:58;;;;;;;3.30;2.30;;;9.00;99.90;;;;;;4988123;28;20026;-59
2022/06/14 05:36:29;;;;;;;4.10;2.50;;;9.10;99.90;;;;;;4989889;28;20019;-58
2022/06/14 05:38:59;;;;;;;3.13;1.80;;;9.10;99.90;;;;;;4989053;28;20032;-58
2022/06/14 05:41:37;;;;;;;2.80;2.22;;;9.20;99.90;;;;;;4989928;28;20085;-58
2022/06/14 05:44:12;;;;;;;7.50;2.38;;;9.30;99.90;;;;;;4982412;28;20454;-58
2022/06/14 05:46:53;;;;;;;5.50;2.35;;;9.50;99.90;;;;;;4989165;28;20074;-58
2022/06/14 05:49:21;;;;;;;5.82;3.20;;;9.60;99.90;;;;;;4991309;28;20033;-58
2022/06/14 05:51:59;;;;;;;4.68;2.50;;;9.80;99.90;;;;;;4988776;28;20517;-58
2022/06/14 05:54:37;;;;;;;5.20;2.50;;;9.80;99.90;;;;;;4990452;28;20034;-58
2022/06/14 05:57:15;;;;;;;5.07;2.28;;;9.90;99.90;;;;;;4990624;28;20052;-58
2022/06/14 05:59:51;;;;;;;4.10;2.58;;;10.00;99.90;;;;;;4989043;28;20112;-58
2022/06/14 06:02:38;;;;;;;3.90;1.92;;;10.10;99.90;;;;;;4988993;28;20033;-58
2022/06/14 06:05:32;;;;;;;2.83;1.80;;;10.10;99.90;;;;;;4985949;28;20204;-58
2022/06/14 06:08:25;;;;;;;5.07;2.17;;;10.20;99.90;;;;;;4974266;28;20128;-57
2022/06/14 06:10:56;;;;;;;3.95;2.13;;;10.30;99.90;;;;;;4988332;28;20121;-58
2022/06/14 06:13:48;;;;;;;5.75;2.72;;;10.40;99.90;;;;;;4988176;28;20022;-58
2022/06/14 06:16:21;;;;;;;4.93;2.55;;;10.40;99.90;;;;;;4981208;28;20042;-57
2022/06/14 06:18:55;;;;;;;;;;;10.40;99.90;;;;;;4988220;28;20038;-57
2022/06/14 06:21:38;;;;;;;4.30;2.13;;;10.50;99.90;;;;;;4990354;28;19917;-58
2022/06/14 06:24:10;;;;;;;3.67;2.38;;;10.60;99.90;;;;;;4989357;28;20053;-58
2022/06/14 06:26:40;;;;;;;2.53;1.83;;;10.70;99.90;;;;;;4988220;28;20034;-58
2022/06/14 06:29:21;;;;;;;4.03;2.25;;;10.80;99.90;;;;;;4989196;28;20022;-58
2022/06/14 06:31:47;;;;;;;7.90;3.40;;;10.80;99.90;;;;;;4987078;28;20034;-59
2022/06/14 06:34:15;;;;;;;3.90;2.05;;;11.00;99.90;;;;;;4990229;28;20073;-58
2022/06/14 06:37:04;;;;;;;4.97;2.03;;;11.10;99.90;;;;;;4988198;28;20073;-59
2022/06/14 06:39:50;;;;;;;3.97;2.35;;;11.10;99.90;;;;;;4986921;28;20557;-58
2022/06/14 06:42:32;;;;;;;7.50;2.65;;;11.30;99.90;;;;;;4988002;28;20050;-58
2022/06/14 06:45:09;;;;;;;6.60;2.08;;;11.40;99.90;;;;;;4982795;28;20524;-58
2022/06/14 06:48:09;;;;;;;4.68;2.55;;;11.60;99.90;;;;;;4987523;28;20026;-60
2022/06/14 06:50:46;;;;;;;3.90;2.15;;;11.70;99.90;;;;;;4985792;28;20046;-59
2022/06/14 06:53:16;;;;;;;3.55;1.92;;;11.90;99.90;;;;;;4988747;28;20026;-58
2022/06/14 06:56:10;;;;;;;6.45;2.13;;;12.00;99.90;;;;;;4983670;28;20081;-59
2022/06/14 06:58:50;;;;;;;7.80;2.88;;;12.10;99.90;;;;;;4983024;28;20050;-58
2022/06/14 07:01:25;;;;;;;7.65;2.83;;;12.10;99.90;;;;;;4985161;28;20041;-59
2022/06/14 07:04:02;;;;;;;5.20;2.53;;;12.20;99.90;;;;;;4984403;28;20031;-59
2022/06/14 07:06:35;;;;;;;5.97;2.90;;;12.40;99.90;;;;;;4988065;28;20205;-58
2022/06/14 07:09:09;;;;;;;2.78;1.65;;;12.50;99.90;;;;;;4985528;28;20121;-58
2022/06/14 07:11:45;;;;;;;3.85;1.48;;;12.60;99.90;;;;;;4986003;28;20027;-59
2022/06/14 07:14:22;;;;;;;4.18;1.38;;;12.80;99.90;;;;;;4991774;28;20494;-59
2022/06/14 07:17:10;;;;;;;5.82;2.05;;;12.90;99.90;;;;;;4984902;28;20117;-58
2022/06/14 07:19:44;;;;;;;4.65;2.53;;;13.00;99.90;;;;;;4987259;28;20034;-59
2022/06/14 07:22:42;;;;;;;4.38;2.40;;;13.20;99.90;;;;;;4988310;28;20027;-58
2022/06/14 07:25:29;;;;;;;7.10;2.13;;;13.40;99.90;;;;;;4982845;28;20050;-57
2022/06/14 07:28:01;;;;;;;6.30;2.08;;;13.50;99.90;;;;;;4976755;28;20041;-58
2022/06/14 07:30:30;;;;;;;;;;;13.60;99.90;;;;;;4983146;28;20120;-58
2022/06/14 07:32:57;;;;;;;6.22;2.08;;;13.60;99.90;;;;;;4979830;28;19926;-58
2022/06/14 07:35:31;;;;;;;6.55;1.73;;;13.80;99.90;;;;;;4984586;28;20031;-59
2022/06/14 07:38:26;;;;;;;4.07;1.55;;;13.80;99.90;;;;;;4986922;28;20019;-58
2022/06/14 07:41:06;;;;;;;8.00;2.75;;;13.90;99.90;;;;;;4983163;28;20352;-58
2022/06/14 07:43:42;;;;;;;8.35;2.17;;;14.10;99.90;;;;;;4981873;28;20108;-58
2022/06/14 07:46:14;;;;;;;9.65;2.58;;;14.30;99.90;;;;;;4984821;28;20054;-58
2022/06/14 07:49:01;;;;;;;3.33;1.60;;;14.50;99.90;;;;;;4983055;28;20030;-58
2022/06/14 07:51:47;;;;;;;6.18;2.00;;;14.50;99.90;;;;;;4985677;28;20390;-58
2022/06/14 07:54:47;;;;;;;9.75;2.70;;;14.70;99.90;;;;;;4985218;28;20033;-58
2022/06/14 07:57:20;;;;;;;6.78;2.00;;;14.80;99.90;;;;;;4976507;28;20026;-58
2022/06/14 08:03:09;;;;;;;5.18;2.58;;;15.20;99.90;;;;;;4991208;28;20129;-57
2022/06/14 08:05:38;;;;;;;11.68;2.22;;;15.30;99.90;;;;;;4981943;28;20053;-58
2022/06/14 08:08:10;;;;;;;4.50;1.60;;;15.40;99.90;;;;;;4983577;28;20691;-58
2022/06/14 08:10:42;;;;;;;5.10;1.85;;;15.60;99.90;;;;;;4987212;28;20113;-58
2022/06/14 08:13:12;;;;;;;5.22;1.80;;;15.70;99.90;;;;;;4976405;28;20033;-58
2022/06/14 08:15:43;;;;;;;3.97;1.45;;;16.00;99.90;;;;;;4988648;28;20038;-57
2022/06/14 08:18:18;;;;;;;3.35;1.55;;;16.00;99.90;;;;;;4988590;28;20031;-58
2022/06/14 08:20:52;;;;;;;5.20;1.80;;;16.00;99.90;;;;;;4989680;28;20034;-59
2022/06/14 08:23:27;;;;;;;4.55;1.65;;;16.20;99.90;;;;;;4990918;28;20477;-58
2022/06/14 08:26:00;;;;;;;6.55;2.38;;;16.30;99.90;;;;;;4988529;28;20042;-58
2022/06/14 08:28:38;;;;;;;5.43;1.30;;;16.30;99.90;;;;;;4984276;28;20037;-59
2022/06/14 08:31:16;;;;;;;5.80;1.50;;;16.50;99.90;;;;;;4986524;28;20082;-58
2022/06/14 08:33:52;;;;;;;5.88;1.70;;;16.70;99.90;;;;;;4985049;28;20030;-58
2022/06/14 08:36:23;;;;;;;5.38;1.73;;;16.70;99.90;;;;;;4990272;28;20485;-59
2022/06/14 08:38:54;;;;;;;6.47;1.17;;;16.80;99.90;;;;;;4987565;28;20490;-59
2022/06/14 08:41:26;;;;;;;10.40;1.50;;;16.80;99.90;;;;;;4987983;28;20403;-58
2022/06/14 08:44:18;;;;;;;7.47;1.60;;;16.90;99.90;;;;;;4985221;28;20100;-58
2022/06/14 08:47:09;;;;;;;6.53;1.63;;;17.10;99.90;;;;;;4985201;28;20065;-57
2022/06/14 08:50:09;;;;;;;4.15;1.42;;;17.20;99.90;;;;;;4988882;28;20426;-59
2022/06/14 08:53:10;;;;;;;5.10;1.23;;;17.40;99.90;;;;;;4955596;28;20045;-58
2022/06/14 08:55:44;;;;;;;6.18;2.13;;;17.70;99.90;;;;;;4940822;29;20027;-58
2022/06/14 08:58:46;;;;;;;3.10;0.90;;;17.80;99.90;;;;;;4942727;28;20039;-61
2022/06/14 09:01:15;;;;;;;;;;;17.90;99.90;;;;;;4948277;28;20144;-57
2022/06/14 09:03:52;;;;;;;3.45;1.20;;;18.10;99.90;;;;;;4946659;28;20472;-58
2022/06/14 09:06:21;;;;;;;10.23;4.93;;;18.20;99.90;;;;;;4947517;29;20066;-58
2022/06/14 09:08:47;;;;;;;4.68;2.05;;;18.30;99.90;;;;;;4945098;28;20042;-59
2022/06/14 09:11:57;;;;;;;6.18;1.15;;;18.50;99.90;;;;;;4946612;28;20625;-57
2022/06/14 09:14:47;;;;;;;3.08;0.80;;;18.60;99.90;;;;;;4945466;29;20507;-58
2022/06/14 09:17:37;;;;;;;5.72;1.35;;;18.70;99.90;;;;;;4947663;29;20039;-57
2022/06/14 09:20:12;;;;;;;2.47;0.95;;;18.70;99.90;;;;;;4946689;28;20226;-58
2022/06/14 09:22:52;;;;;;;3.78;1.52;;;18.70;99.90;;;;;;4945879;28;20630;-57
2022/06/14 09:25:35;;;;;;;3.25;1.05;;;18.80;99.90;;;;;;4947574;29;20098;-57
2022/06/14 09:28:18;;;;;;;1.13;0.82;;;18.80;99.90;;;;;;4947618;29;20027;-58
2022/06/14 09:31:03;;;;;;;3.40;0.80;;;18.70;99.90;;;;;;4956116;28;20054;-57
2022/06/14 09:33:49;;;;;;;2.00;0.98;;;18.90;99.90;;;;;;4987280;28;20026;-57
2022/06/14 09:36:45;;;;;;;3.53;1.00;;;19.00;99.90;;;;;;4960085;28;20116;-57
2022/06/14 09:39:29;;;;;;;2.92;0.73;;;19.20;99.90;;;;;;4985838;28;20109;-58
2022/06/14 09:42:27;;;;;;;6.00;2.00;;;19.20;99.90;;;;;;4983590;28;20045;-58
2022/06/14 09:45:19;;;;;;;3.85;1.60;;;19.30;99.90;;;;;;4905531;29;20118;-58
2022/06/14 09:48:17;;;;;;;2.67;0.98;;;19.40;99.00;;;;;;4902301;29;20059;-57
2022/06/14 09:50:55;;;;;;;14.77;1.50;;;19.50;98.20;;;;;;4903632;29;20048;-59
2022/06/14 09:53:24;;;;;;;4.20;1.33;;;19.50;98.40;;;;;;4899124;29;20527;-59
2022/06/14 09:55:59;;;;;;;3.78;1.13;;;19.70;98.50;;;;;;4899676;29;20091;-57
2022/06/14 09:58:50;;;;;;;5.03;1.20;;;19.70;96.90;;;;;;4901000;29;20031;-57
2022/06/14 10:02:09;;;;;;;9.35;1.05;;;19.60;96.70;;;;;;4904138;29;20131;-59
2022/06/14 10:04:41;;;;;;;4.72;1.33;;;19.60;96.30;;;;;;4851736;29;20133;-58
2022/06/14 10:07:20;;;;;;;2.67;1.10;;;19.70;96.70;;;;;;4852943;29;20091;-58
2022/06/14 10:10:07;;;;;;;6.60;1.33;;;19.70;96.20;;;;;;4852256;29;20123;-58
2022/06/14 10:12:54;;;;;;;4.57;1.00;;;19.70;95.90;;;;;;4849718;29;20041;-58
2022/06/14 10:15:33;;;;;;;2.00;0.88;;;19.90;95.60;;;;;;4853758;29;20033;-58
2022/06/14 10:18:22;;;;;;;5.50;0.93;;;20.10;95.70;;;;;;4849697;29;20029;-58
2022/06/14 10:20:47;;;;;;;6.15;1.05;;;20.20;95.00;;;;;;4896170;29;20515;-57
2022/06/14 10:23:26;;;;;;;2.33;0.90;;;20.10;93.90;;;;;;4927110;29;20032;-57
2022/06/14 10:29:27;;;;;;;10.15;1.00;;;20.10;94.00;;;;;;4922253;29;20039;-58
2022/06/14 10:32:26;;;;;;;4.57;0.98;;;20.30;95.20;;;;;;4922535;29;20036;-58
2022/06/14 10:35:19;;;;;;;3.42;1.00;;;20.40;92.70;;;;;;4926148;29;20159;-58
2022/06/14 10:38:04;;;;;;;6.07;0.90;;;20.70;93.40;;;;;;4942323;28;20046;-58
2022/06/14 10:40:41;;;;;;;3.53;0.80;;;20.80;92.40;;;;;;4987814;28;20026;-59
2022/06/14 10:43:25;;;;;;;3.38;0.82;;;20.80;93.00;;;;;;4987442;28;20038;-58
2022/06/14 10:45:59;;;;;;;4.63;0.88;;;20.80;92.90;;;;;;4985023;28;20042;-58
2022/06/14 10:49:02;;;;;;;5.45;0.90;;;20.70;91.30;;;;;;4983959;28;20497;-58
2022/06/14 10:51:59;;;;;;;6.22;1.20;;;20.90;91.60;;;;;;4984404;28;20114;-59
2022/06/14 10:54:37;;;;;;;6.30;0.70;;;20.80;89.90;;;;;;4986055;28;20636;-59
2022/06/14 10:57:45;;;;;;;6.30;0.80;;;20.90;89.90;;;;;;4982821;28;20534;-61
2022/06/14 11:00:33;;;;;;;2.78;0.80;;;20.70;88.70;;;;;;4949062;28;20552;-59
2022/06/14 11:03:02;;;;;;;2.97;0.80;;;20.90;89.90;;;;;;4984308;28;20087;-59
2022/06/14 11:05:54;;;;;;;4.20;0.80;;;21.10;88.30;;;;;;4987388;28;20121;-61
2022/06/14 11:08:45;;;;;;;;;;;21.40;87.10;;;;;;4983117;28;20026;-58
2022/06/14 11:11:23;;;;;;;8.20;1.23;;;21.70;86.80;;;;;;4986697;28;19918;-58
2022/06/14 11:14:07;;;;;;;12.80;2.55;;;22.10;83.70;;;;;;4984763;28;20046;-58
2022/06/14 11:16:39;;;;;;;1.92;0.80;;;22.20;81.80;;;;;;4983347;28;20443;-59
2022/06/14 11:22:13;;;;;;;2.63;0.95;;;22.60;78.10;;;;;;4983105;28;19920;-58
2022/06/14 11:25:01;;;;;;;4.38;0.88;;;23.10;77.80;;;;;;4981625;28;20082;-58
2022/06/14 11:27:35;;;;;;;1.80;0.77;;;23.30;75.30;;;;;;4984463;28;20479;-58
2022/06/14 11:30:07;;;;;;;2.25;0.77;;;23.30;74.10;;;;;;4981342;28;20103;-58
2022/06/14 11:32:42;;;;;;;2.33;1.10;;;23.00;74.40;;;;;;4985906;28;20514;-58
2022/06/14 11:35:29;;;;;;;2.92;0.80;;;23.50;73.10;;;;;;4985787;28;20429;-58
2022/06/14 11:38:32;;;;;;;2.65;0.85;;;23.10;72.30;;;;;;4987501;28;20494;-58
2022/06/14 11:41:05;;;;;;;2.42;0.80;;;23.50;72.10;;;;;;4987582;28;20609;-58
2022/06/14 11:43:49;;;;;;;3.97;0.98;;;23.80;70.70;;;;;;4987990;28;20362;-57
2022/06/14 11:46:36;;;;;;;3.15;0.90;;;23.60;67.70;;;;;;4987876;28;20065;-58
2022/06/14 11:49:15;;;;;;;4.18;0.88;;;23.60;68.70;;;;;;4985606;28;20030;-57
2022/06/14 11:52:00;;;;;;;2.05;0.63;;;24.00;67.70;;;;;;4991025;28;20042;-58
2022/06/14 11:54:48;;;;;;;10.98;1.40;;;24.10;67.20;;;;;;4990025;28;20486;-58
2022/06/14 11:57:30;;;;;;;2.83;0.80;;;24.70;64.00;;;;;;4984789;28;20034;-58
2022/06/14 12:00:23;;;;;;;5.22;1.10;;;24.50;63.50;;;;;;4984633;28;20784;-58
2022/06/14 12:03:35;;;;;;;3.63;1.42;;;24.80;61.90;;;;;;4988654;28;20034;-57
2022/06/14 12:06:11;;;;;;;3.55;0.90;;;24.50;62.80;;;;;;4988810;28;20038;-58
2022/06/14 12:08:56;;;;;;;4.32;1.25;;;24.90;61.00;;;;;;4987930;28;20022;-58
2022/06/14 12:11:25;;;;;;;5.57;1.13;;;24.60;61.10;;;;;;4989079;28;20112;-57
2022/06/14 12:14:09;;;;;;;6.18;0.93;;;24.50;62.10;;;;;;4987861;28;20466;-57
2022/06/14 12:16:40;;;;;;;2.25;1.00;;;24.50;61.20;;;;;;4990512;28;20080;-58
2022/06/14 12:19:19;;;;;;;2.35;0.65;;;25.40;59.70;;;;;;4992307;28;20037;-58
2022/06/14 12:21:50;;;;;;;4.13;0.82;;;25.60;57.50;;;;;;4981573;28;20045;-59
2022/06/14 12:24:21;;;;;;;;;;;25.50;56.00;;;;;;4992621;28;20145;-57
2022/06/14 12:26:58;;;;;;;2.45;0.75;;;25.60;56.70;;;;;;4984514;28;20012;-58
2022/06/14 12:29:29;;;;;;;4.97;1.15;;;25.30;55.60;;;;;;4991691;28;20027;-57
2022/06/14 12:31:55;;;;;;;2.85;1.00;;;25.20;55.90;;;;;;4983513;28;20026;-57
2022/06/14 12:34:35;;;;;;;2.38;0.80;;;25.10;56.10;;;;;;4987290;28;20509;-57
2022/06/14 12:37:20;;;;;;;5.28;1.45;;;25.60;55.60;;;;;;4986037;28;20023;-58
2022/06/14 12:40:03;;;;;;;2.60;0.80;;;26.00;54.20;;;;;;4988333;28;20058;-58
2022/06/14 12:42:48;;;;;;;6.43;1.00;;;25.80;53.90;;;;;;4990207;28;20058;-58
2022/06/14 12:45:23;;;;;;;2.08;0.70;;;25.80;53.20;;;;;;4985812;28;20498;-58
2022/06/14 12:47:54;;;;;;;4.82;1.33;;;25.90;52.80;;;;;;4986669;28;20041;-57
2022/06/14 12:50:23;;;;;;;;;;;25.90;51.90;;;;;;4989623;28;20125;-58
2022/06/14 12:52:56;;;;;;;5.95;1.00;;;26.20;52.40;;;;;;4989612;28;19913;-58
2022/06/14 12:55:29;;;;;;;3.40;1.13;;;26.40;50.60;;;;;;4991758;28;20045;-57
2022/06/14 12:57:54;;;;;;;3.85;0.70;;;26.60;50.80;;;;;;4988154;28;20026;-58
2022/06/14 13:00:34;;;;;;;2.20;0.75;;;26.50;50.70;;;;;;4991416;28;20410;-58
2022/06/14 13:03:11;;;;;;;3.38;0.80;;;26.80;49.40;;;;;;4989561;28;20042;-58
2022/06/14 13:05:52;;;;;;;5.18;1.02;;;26.90;49.10;;;;;;4986833;28;20078;-59
2022/06/14 13:08:43;;;;;;;5.70;0.75;;;26.70;49.70;;;;;;4991300;28;20423;-60
2022/06/14 13:11:41;;;;;;;4.38;1.27;;;26.90;48.50;;;;;;4986705;28;20022;-57
2022/06/14 13:14:15;;;;;;;2.72;0.65;;;26.80;46.90;;;;;;4988224;28;20359;-58
2022/06/14 13:17:03;;;;;;;3.38;0.85;;;26.70;48.00;;;;;;4982254;28;20038;-58
2022/06/14 13:19:43;;;;;;;3.28;0.88;;;26.80;47.40;;;;;;4987392;28;20479;-58
2022/06/14 13:22:47;;;;;;;3.67;0.80;;;27.20;47.20;;;;;;4986976;28;20156;-58
2022/06/14 13:25:32;;;;;;;3.45;1.08;;;27.60;46.40;;;;;;4990804;28;20061;-61
2022/06/14 13:28:25;;;;;;;5.28;1.23;;;27.80;45.50;;;;;;4980753;28;20042;-59
2022/06/14 13:31:03;;;;;;;7.80;1.40;;;28.00;44.40;;;;;;4978861;28;20034;-58
2022/06/14 13:33:55;;;;;;;4.10;1.00;;;28.30;43.70;;;;;;4983312;28;20042;-58
2022/06/14 13:36:24;;;;;;;2.58;0.80;;;28.10;44.30;;;;;;4986928;28;20082;-58
2022/06/14 13:39:10;;;;;;;2.75;1.35;;;28.30;43.20;;;;;;4976928;28;20041;-57
2022/06/14 13:41:36;;;;;;;6.70;1.25;;;28.40;43.30;;;;;;4986671;28;20387;-58
2022/06/14 13:44:37;;;;;;;2.85;1.00;;;28.90;42.30;;;;;;4986128;28;20046;-57
2022/06/14 13:47:17;;;;;;;3.03;1.60;;;28.80;42.00;;;;;;4976748;28;20490;-58
2022/06/14 13:49:53;;;;;;;3.55;1.08;;;28.90;42.10;;;;;;4980393;28;20041;-58
2022/06/14 13:52:32;;;;;;;4.10;1.00;;;28.40;41.40;;;;;;4984329;28;20156;-58
2022/06/14 13:55:08;;;;;;;2.53;1.02;;;28.80;40.90;;;;;;4985845;28;20034;-58
2022/06/14 13:57:47;;;;;;;4.05;0.90;;;28.50;42.20;;;;;;4979329;28;20034;-58
2022/06/14 14:00:18;;;;;;;4.28;0.95;;;28.60;41.90;;;;;;4984400;28;20117;-58
2022/06/14 14:03:14;;;;;;;2.57;0.90;;;29.20;40.90;;;;;;4985801;28;20105;-58
2022/06/14 14:05:47;;;;;;;3.35;0.98;;;29.10;40.60;;;;;;4986304;28;20065;-57
2022/06/14 14:08:23;;;;;;;4.70;0.80;;;28.50;41.00;;;;;;4988332;28;20026;-57
2022/06/14 14:11:10;;;;;;;1.73;0.80;;;29.50;39.60;;;;;;4983147;28;20486;-58
2022/06/14 14:13:55;;;;;;;2.85;1.00;;;29.80;39.20;;;;;;4984415;28;20041;-57